createdAt,value
2023-02-05T00:02:48.203Z,14.10
2023-02-05T00:05:56.391Z,12.50
2023-02-05T00:09:04.587Z,13.30
2023-02-05T00:12:12.603Z,15.20
2023-02-05T00:15:21.321Z,15.50
2023-02-05T00:18:29.069Z,13.50
2023-02-05T00:21:37.432Z,15.00
2023-02-05T00:24:45.782Z,14.10
2023-02-05T00:27:53.612Z,10.20
2023-02-05T00:31:02.571Z,9.60
2023-02-05T00:34:10.959Z,8.10
2023-02-05T00:37:18.795Z,13.20
2023-02-05T00:40:27.012Z,8.70
2023-02-05T00:43:35.228Z,10.80
2023-02-05T00:46:43.427Z,11.20
2023-02-05T00:49:52.494Z,12.00
2023-02-05T00:53:00.518Z,11.30
2023-02-05T00:56:08.760Z,9.80
2023-02-05T00:59:17.759Z,10.30
2023-02-05T01:02:25.774Z,12.10
2023-02-05T01:05:34.312Z,9.00
2023-02-05T01:08:42.450Z,8.20
2023-02-05T01:11:51.363Z,8.40
2023-02-05T01:14:59.684Z,10.70
2023-02-05T01:18:08.061Z,14.90
2023-02-05T01:21:16.581Z,10.50
2023-02-05T01:24:24.338Z,9.80
2023-02-05T01:27:32.775Z,10.10
2023-02-05T01:30:41.575Z,11.60
2023-02-05T01:33:49.276Z,12.10
2023-02-05T01:36:57.713Z,12.40
2023-02-05T01:40:05.791Z,14.40
2023-02-05T01:43:13.891Z,15.50
2023-02-05T01:46:22.585Z,11.50
2023-02-05T01:49:30.635Z,13.10
2023-02-05T01:52:38.785Z,13.10
2023-02-05T01:55:47.194Z,9.70
2023-02-05T01:58:56.480Z,11.30
2023-02-05T02:02:05.004Z,9.10
2023-02-05T02:05:13.505Z,10.20
2023-02-05T02:08:22.157Z,9.40
2023-02-05T02:11:30.618Z,11.60
2023-02-05T02:14:39.059Z,11.50
2023-02-05T02:17:48.062Z,11.10
2023-02-05T02:20:56.312Z,11.50
2023-02-05T02:24:04.857Z,12.40
2023-02-05T02:27:14.003Z,9.80
2023-02-05T02:30:22.139Z,11.70
2023-02-05T02:33:30.695Z,12.10
2023-02-05T02:36:39.259Z,11.80
2023-02-05T02:39:47.455Z,11.40
2023-02-05T02:42:56.505Z,13.70
2023-02-05T02:46:05.066Z,11.20
2023-02-05T02:49:13.795Z,11.00
2023-02-05T02:52:22.296Z,12.00
2023-02-05T02:55:30.948Z,12.50
2023-02-05T02:58:39.797Z,16.70
2023-02-05T03:01:53.618Z,12.40
2023-02-05T03:04:52.145Z,10.90
2023-02-05T03:08:00.684Z,10.60
2023-02-05T03:11:08.706Z,10.80
2023-02-05T03:14:17.664Z,9.00
2023-02-05T03:17:25.663Z,8.60
2023-02-05T03:20:33.944Z,9.10
2023-02-05T03:23:43.023Z,12.10
2023-02-05T03:26:51.611Z,8.40
2023-02-05T03:29:59.920Z,9.70
2023-02-05T03:33:08.677Z,10.90
2023-02-05T03:36:17.156Z,13.40
2023-02-05T03:39:25.601Z,8.30
2023-02-05T03:42:33.931Z,12.60
2023-02-05T03:45:42.732Z,11.20
2023-02-05T03:48:51.350Z,13.00
2023-02-05T03:51:59.780Z,10.30
2023-02-05T03:55:08.238Z,14.70
2023-02-05T03:58:17.042Z,9.70
2023-02-05T04:01:25.599Z,11.30
2023-02-05T04:04:34.580Z,12.10
2023-02-05T04:07:42.511Z,13.00
2023-02-05T04:10:51.117Z,10.00
2023-02-05T04:13:59.747Z,10.40
2023-02-05T04:17:07.710Z,10.00
2023-02-05T04:20:16.554Z,7.80
2023-02-05T04:23:24.957Z,9.80
2023-02-05T04:26:32.902Z,10.10
2023-02-05T04:29:41.713Z,9.30
2023-02-05T04:32:50.291Z,9.90
2023-02-05T04:35:58.664Z,10.60
2023-02-05T04:39:07.325Z,10.60
2023-02-05T04:42:15.601Z,10.40
2023-02-05T04:45:23.972Z,8.40
2023-02-05T04:48:32.309Z,12.50
2023-02-05T04:51:40.993Z,10.80
2023-02-05T04:54:49.532Z,10.90
2023-02-05T04:57:58.084Z,12.60
2023-02-05T05:01:07.080Z,11.30
2023-02-05T05:04:15.674Z,12.70
2023-02-05T05:07:24.235Z,10.80
2023-02-05T05:10:33.175Z,11.60
2023-02-05T05:13:41.788Z,11.40
2023-02-05T05:16:50.435Z,9.60
2023-02-05T05:19:59.338Z,11.60
2023-02-05T05:23:07.335Z,11.30
2023-02-05T05:26:16.132Z,8.90
2023-02-05T05:29:25.007Z,9.90
2023-02-05T05:32:32.991Z,10.70
2023-02-05T05:35:42.089Z,8.50
2023-02-05T05:38:50.931Z,10.60
2023-02-05T05:41:58.949Z,9.60
2023-02-05T05:45:07.575Z,12.00
2023-02-05T05:48:15.971Z,9.40
2023-02-05T05:51:24.296Z,9.20
2023-02-05T05:54:33.009Z,10.50
2023-02-05T05:57:41.297Z,11.00
2023-02-05T06:00:49.753Z,8.40
2023-02-05T06:03:58.528Z,8.00
2023-02-05T06:07:07.030Z,8.50
2023-02-05T06:10:15.346Z,8.20
2023-02-05T06:13:23.941Z,7.20
2023-02-05T06:16:32.376Z,9.20
2023-02-05T06:19:40.362Z,6.40
2023-02-05T06:22:49.098Z,8.80
2023-02-05T06:25:58.500Z,8.40
2023-02-05T06:29:06.886Z,7.20
2023-02-05T06:32:15.423Z,7.70
2023-02-05T06:35:24.394Z,7.50
2023-02-05T06:38:32.461Z,9.00
2023-02-05T06:41:41.165Z,8.10
2023-02-05T06:44:49.917Z,9.70
2023-02-05T06:47:58.761Z,6.60
2023-02-05T06:51:08.069Z,8.10
2023-02-05T06:54:16.900Z,7.60
2023-02-05T06:57:25.061Z,7.50
2023-02-05T07:00:33.697Z,6.90
2023-02-05T07:03:42.183Z,9.90
2023-02-05T07:06:50.745Z,5.70
2023-02-05T07:09:58.928Z,6.40
2023-02-05T07:13:07.259Z,7.60
2023-02-05T07:16:15.507Z,7.30
2023-02-05T07:19:24.301Z,7.80
2023-02-05T07:22:32.832Z,12.40
2023-02-05T07:25:41.490Z,7.30
2023-02-05T07:28:49.611Z,7.80
2023-02-05T07:31:58.209Z,8.30
2023-02-05T07:35:06.710Z,7.20
2023-02-05T07:38:14.729Z,7.70
2023-02-05T07:41:23.478Z,7.60
2023-02-05T07:44:31.770Z,7.00
2023-02-05T07:47:40.126Z,7.80
2023-02-05T07:50:49.167Z,10.00
2023-02-05T07:53:58.041Z,9.80
2023-02-05T07:57:07.123Z,9.40
2023-02-05T08:00:15.758Z,9.70
2023-02-05T08:03:24.191Z,9.20
2023-02-05T08:06:32.669Z,8.70
2023-02-05T08:09:41.218Z,12.10
2023-02-05T08:12:49.371Z,8.80
2023-02-05T08:15:58.374Z,9.20
2023-02-05T08:19:06.293Z,8.90
2023-02-05T08:22:14.840Z,10.00
2023-02-05T08:25:23.307Z,8.20
2023-02-05T08:28:31.422Z,10.40
2023-02-05T08:31:40.230Z,11.40
2023-02-05T08:34:48.551Z,10.70
2023-02-05T08:37:56.764Z,8.20
2023-02-05T08:41:05.439Z,10.50
2023-02-05T08:44:13.786Z,9.50
2023-02-05T08:47:22.351Z,12.10
2023-02-05T08:50:31.134Z,7.00
2023-02-05T08:53:39.219Z,8.70
2023-02-05T08:56:48.221Z,10.20
2023-02-05T08:59:56.955Z,11.20
2023-02-05T09:03:04.942Z,10.20
2023-02-05T09:06:13.544Z,8.50
2023-02-05T09:09:22.948Z,9.60
2023-02-05T09:12:31.162Z,9.30
2023-02-05T09:15:39.875Z,8.30
2023-02-05T09:18:48.506Z,11.70
2023-02-05T09:21:56.926Z,9.20
2023-02-05T09:25:05.426Z,9.60
2023-02-05T09:28:13.920Z,12.40
2023-02-05T09:31:22.573Z,10.20
2023-02-05T09:34:31.141Z,9.40
2023-02-05T09:37:39.624Z,9.40
2023-02-05T09:40:48.161Z,9.10
2023-02-05T09:43:57.030Z,10.30
2023-02-05T09:47:05.492Z,10.80
2023-02-05T09:50:13.981Z,17.10
2023-02-05T09:53:22.649Z,20.50
2023-02-05T09:56:31.761Z,15.80
2023-02-05T09:59:40.170Z,17.90
2023-02-05T10:02:48.617Z,16.80
2023-02-05T10:05:57.632Z,27.90
2023-02-05T10:09:06.201Z,23.70
2023-02-05T10:12:14.884Z,13.40
2023-02-05T10:15:23.579Z,16.20
2023-02-05T10:18:31.564Z,13.10
2023-02-05T10:21:40.142Z,10.90
2023-02-05T10:24:48.736Z,11.00
2023-02-05T10:27:56.830Z,20.70
2023-02-05T10:31:05.315Z,10.20
2023-02-05T10:34:13.745Z,10.00
2023-02-05T10:37:21.880Z,9.40
2023-02-05T10:40:30.849Z,14.40
2023-02-05T10:43:39.837Z,9.70
2023-02-05T10:46:47.873Z,9.80
2023-02-05T10:49:56.387Z,9.40
2023-02-05T10:53:04.968Z,9.60
2023-02-05T10:56:13.564Z,11.60
2023-02-05T10:59:21.787Z,10.00
2023-02-05T11:02:29.848Z,8.40
2023-02-05T11:05:38.541Z,7.90
2023-02-05T11:08:46.294Z,9.40
2023-02-05T11:11:54.875Z,10.40
2023-02-05T11:15:03.053Z,6.90
2023-02-05T11:18:10.912Z,8.30
2023-02-05T11:21:19.453Z,6.70
2023-02-05T11:24:27.556Z,11.20
2023-02-05T11:27:35.847Z,6.50
2023-02-05T11:30:52.656Z,20.00
2023-02-05T11:33:49.772Z,10.80
2023-02-05T11:36:57.907Z,8.00
2023-02-05T11:40:06.235Z,7.70
2023-02-05T11:43:14.985Z,5.20
2023-02-05T11:46:23.398Z,6.90
2023-02-05T11:49:31.585Z,8.30
2023-02-05T11:52:40.496Z,6.80
2023-02-05T11:55:48.829Z,6.60
2023-02-05T11:58:57.048Z,8.00
2023-02-05T12:02:05.689Z,7.40
2023-02-05T12:05:13.602Z,5.70
2023-02-05T12:08:22.122Z,7.20
2023-02-05T12:11:30.868Z,5.10
2023-02-05T12:14:38.806Z,6.20
2023-02-05T12:17:46.991Z,7.50
2023-02-05T12:20:55.212Z,7.60
2023-02-05T12:24:03.245Z,6.20
2023-02-05T12:27:11.875Z,6.50
2023-02-05T12:30:20.450Z,5.70
2023-02-05T12:33:28.881Z,5.90
2023-02-05T12:36:37.166Z,5.80
2023-02-05T12:39:45.912Z,7.80
2023-02-05T12:42:54.496Z,5.40
2023-02-05T12:46:02.937Z,6.30
2023-02-05T12:49:11.806Z,7.70
2023-02-05T12:52:20.376Z,6.80
2023-02-05T12:55:28.910Z,8.90
2023-02-05T12:58:37.729Z,7.90
2023-02-05T13:01:46.144Z,7.20
2023-02-05T13:04:55.001Z,5.60
2023-02-05T13:08:03.968Z,6.70
2023-02-05T13:11:11.914Z,7.50
2023-02-05T13:14:20.472Z,10.30
2023-02-05T13:17:29.073Z,5.50
2023-02-05T13:20:37.052Z,8.50
2023-02-05T13:23:45.511Z,7.00
2023-02-05T13:26:53.560Z,6.90
2023-02-05T13:30:04.770Z,6.70
2023-02-05T13:33:02.895Z,6.80
2023-02-05T13:36:11.438Z,8.90
2023-02-05T13:39:22.648Z,8.60
2023-02-05T13:42:22.225Z,7.30
2023-02-05T13:45:30.677Z,7.00
2023-02-05T13:48:39.127Z,9.10
2023-02-05T13:51:47.732Z,8.90
2023-02-05T13:54:56.568Z,8.40
2023-02-05T13:58:05.010Z,8.60
2023-02-05T14:01:13.278Z,12.00
2023-02-05T14:04:22.151Z,8.20
2023-02-05T14:07:30.587Z,8.10
2023-02-05T14:10:39.408Z,9.70
2023-02-05T14:13:48.551Z,9.30
2023-02-05T14:16:57.130Z,9.20
2023-02-05T14:20:06.169Z,8.20
2023-02-05T14:23:14.638Z,7.40
2023-02-05T14:26:23.620Z,8.40
2023-02-05T14:29:32.088Z,9.80
2023-02-05T14:32:40.629Z,8.90
2023-02-05T14:35:49.224Z,8.50
2023-02-05T14:38:57.126Z,7.90
2023-02-05T14:42:05.605Z,7.50
2023-02-05T14:45:14.108Z,6.20
2023-02-05T14:48:22.519Z,6.30
2023-02-05T14:51:30.911Z,8.90
2023-02-05T14:54:39.336Z,10.70
2023-02-05T14:57:47.864Z,8.10
2023-02-05T15:00:56.472Z,9.00
2023-02-05T15:04:05.117Z,9.40
2023-02-05T15:07:13.763Z,10.70
2023-02-05T15:10:22.427Z,7.00
2023-02-05T15:13:30.646Z,7.60
2023-02-05T15:16:39.105Z,8.40
2023-02-05T15:19:47.512Z,9.40
2023-02-05T15:22:56.390Z,10.50
2023-02-05T15:26:04.771Z,9.80
2023-02-05T15:29:13.436Z,9.70
2023-02-05T15:32:22.225Z,7.90
2023-02-05T15:35:30.529Z,8.30
2023-02-05T15:38:38.898Z,9.50
2023-02-05T15:41:48.077Z,7.20
2023-02-05T15:44:56.010Z,8.90
2023-02-05T15:48:04.586Z,9.40
2023-02-05T15:51:13.428Z,10.60
2023-02-05T15:54:21.443Z,13.30
2023-02-05T15:57:30.424Z,13.70
2023-02-05T16:00:39.275Z,12.40
2023-02-05T16:03:48.032Z,11.90
2023-02-05T16:06:56.667Z,11.80
2023-02-05T16:10:05.046Z,14.50
2023-02-05T16:13:13.562Z,12.00
2023-02-05T16:16:24.335Z,14.10
2023-02-05T16:19:23.035Z,11.40
2023-02-05T16:22:31.630Z,12.50
2023-02-05T16:25:40.061Z,13.80
2023-02-05T16:28:50.298Z,13.00
2023-02-05T16:31:58.837Z,12.60
2023-02-05T16:35:07.504Z,15.40
2023-02-05T16:38:16.236Z,23.50
2023-02-05T16:41:24.511Z,19.40
2023-02-05T16:44:32.456Z,21.70
2023-02-05T16:47:41.254Z,21.00
2023-02-05T16:50:49.340Z,16.80
2023-02-05T16:53:57.798Z,18.50
2023-02-05T16:57:06.835Z,18.40
2023-02-05T17:00:14.820Z,19.10
2023-02-05T17:03:23.669Z,18.50
2023-02-05T17:06:23.872Z,22.50
2023-02-05T17:09:32.315Z,25.50
2023-02-05T17:12:41.300Z,26.40
2023-02-05T17:15:49.724Z,24.60
2023-02-05T17:18:59.002Z,27.80
2023-02-05T17:22:07.502Z,25.40
2023-02-05T17:25:15.817Z,21.50
2023-02-05T17:28:24.539Z,22.00
2023-02-05T17:31:33.071Z,22.10
2023-02-05T17:34:42.134Z,20.90
2023-02-05T17:37:51.239Z,21.90
2023-02-05T17:40:59.255Z,23.20
2023-02-05T17:44:08.271Z,28.40
2023-02-05T17:47:16.903Z,30.00
2023-02-05T17:50:25.468Z,33.20
2023-02-05T17:53:34.151Z,34.50
2023-02-05T17:56:42.711Z,33.30
2023-02-05T17:59:51.268Z,31.80
2023-02-05T18:03:00.365Z,30.80
2023-02-05T18:06:08.824Z,30.10
2023-02-05T18:09:17.662Z,25.20
2023-02-05T18:12:26.203Z,26.80
2023-02-05T18:15:35.041Z,29.30
2023-02-05T18:18:43.529Z,32.50
2023-02-05T18:21:52.034Z,29.80
2023-02-05T18:25:00.930Z,27.50
2023-02-05T18:28:09.189Z,31.60
2023-02-05T18:31:18.207Z,27.40
2023-02-05T18:34:27.186Z,30.20
2023-02-05T18:37:35.282Z,32.60
2023-02-05T18:40:44.060Z,33.90
2023-02-05T18:43:53.050Z,29.90
2023-02-05T18:47:01.152Z,32.70
2023-02-05T18:50:12.985Z,34.50
2023-02-05T18:53:21.513Z,29.70
2023-02-05T18:56:30.204Z,30.10
2023-02-05T18:59:39.188Z,37.00
2023-02-05T19:02:47.299Z,36.70
2023-02-05T19:05:55.934Z,39.20
2023-02-05T19:09:05.128Z,42.90
2023-02-05T19:12:13.732Z,30.80
2023-02-05T19:15:22.245Z,26.40
2023-02-05T19:18:30.826Z,23.70
2023-02-05T19:21:39.883Z,22.30
2023-02-05T19:24:48.333Z,21.20
2023-02-05T19:27:56.902Z,22.80
2023-02-05T19:31:06.433Z,21.60
2023-02-05T19:34:14.740Z,25.20
2023-02-05T19:37:22.947Z,21.90
2023-02-05T19:40:31.352Z,24.70
2023-02-05T19:43:39.990Z,19.90
2023-02-05T19:46:48.020Z,18.80
2023-02-05T19:49:57.124Z,17.80
2023-02-05T19:53:05.166Z,20.30
2023-02-05T19:56:14.100Z,23.30
2023-02-05T19:59:22.848Z,27.30
2023-02-05T20:02:30.935Z,24.40
2023-02-05T20:05:40.144Z,28.90
2023-02-05T20:08:49.040Z,61.40
2023-02-05T20:11:57.590Z,36.30
2023-02-05T20:15:05.959Z,29.30
2023-02-05T20:18:14.814Z,25.00
2023-02-05T20:21:23.046Z,20.10
2023-02-05T20:24:32.004Z,20.20
2023-02-05T20:27:40.966Z,20.00
2023-02-05T20:30:49.760Z,17.90
2023-02-05T20:33:58.324Z,28.10
2023-02-05T20:37:06.686Z,23.30
2023-02-05T20:40:16.053Z,25.20
2023-02-05T20:43:24.767Z,23.80
2023-02-05T20:46:33.716Z,23.70
2023-02-05T20:49:42.979Z,19.90
2023-02-05T20:52:51.066Z,19.30
2023-02-05T20:56:00.000Z,22.80
2023-02-05T20:59:08.991Z,22.30
2023-02-05T21:02:17.203Z,22.30
2023-02-05T21:05:26.189Z,24.80
2023-02-05T21:08:34.955Z,18.50
2023-02-05T21:11:43.168Z,18.60
2023-02-05T21:14:52.193Z,17.20
2023-02-05T21:18:00.918Z,17.70
2023-02-05T21:21:09.495Z,18.60
2023-02-05T21:24:18.428Z,21.80
2023-02-05T21:27:26.867Z,17.80
2023-02-05T21:30:35.750Z,21.90
2023-02-05T21:33:44.011Z,17.60
2023-02-05T21:36:52.633Z,18.30
2023-02-05T21:40:09.267Z,20.00
2023-02-05T21:43:06.385Z,18.80
2023-02-05T21:46:15.367Z,17.50
2023-02-05T21:49:23.845Z,16.90
2023-02-05T21:52:32.357Z,20.30
2023-02-05T21:55:41.063Z,20.80
2023-02-05T21:58:49.764Z,19.50
2023-02-05T22:01:58.346Z,22.80
2023-02-05T22:05:06.904Z,24.70
2023-02-05T22:08:15.246Z,21.60
2023-02-05T22:11:23.475Z,24.70
2023-02-05T22:14:32.018Z,23.80
2023-02-05T22:17:41.216Z,27.20
2023-02-05T22:20:49.767Z,27.30
2023-02-05T22:23:58.265Z,28.40
2023-02-05T22:27:06.999Z,29.50
2023-02-05T22:30:15.612Z,26.90
2023-02-05T22:33:24.280Z,29.30
2023-02-05T22:36:33.258Z,29.40
2023-02-05T22:39:41.575Z,28.00
2023-02-05T22:42:50.176Z,31.30
2023-02-05T22:45:59.013Z,25.20
2023-02-05T22:49:06.888Z,37.60
2023-02-05T22:52:15.642Z,31.80
2023-02-05T22:55:24.112Z,33.00
2023-02-05T22:58:32.163Z,35.50
2023-02-05T23:01:41.234Z,35.20
2023-02-05T23:04:50.138Z,35.00
2023-02-05T23:07:58.187Z,33.40
2023-02-05T23:11:07.134Z,32.10
2023-02-05T23:14:16.301Z,34.90
2023-02-05T23:17:24.340Z,30.90
2023-02-05T23:20:33.178Z,29.20
2023-02-05T23:23:41.929Z,28.40
2023-02-05T23:26:50.474Z,27.80
2023-02-05T23:29:58.877Z,26.20
2023-02-05T23:33:07.425Z,27.60
2023-02-05T23:36:16.407Z,24.20
2023-02-05T23:39:24.778Z,25.60
2023-02-05T23:42:33.050Z,19.60
2023-02-05T23:45:41.809Z,20.60
2023-02-05T23:48:49.838Z,20.60
2023-02-05T23:51:58.500Z,22.70
2023-02-05T23:55:06.876Z,19.40
2023-02-05T23:58:14.941Z,19.50
